Memphis, TN

7:38 PM CDT on July 01, 2015 (GMT -0500)
APRSWXNET | | Change Station
CLOSE
Current Station
Personal Weather Station
Location: Cordova, TN
Elevation: 334 ft
Nearby Weather Stations

Elev 334 ft 35.16 °N, 89.80 °W | Updated 19 minutes ago

Mostly Cloudy
Mostly Cloudy
84 °F
Feels Like 92 °F
N
2
Wind Variable Wind from SW
Gusts 7.0 mph

Today
High -- | Low -- °F
--% Chance of Precip.
Yesterday
High -- | Low -- °F
Precip. -- in
5:48 AM 8:17 PM
Full, 100% visible
Pressure 29.91 in
Visibility 10.0 miles
Clouds Few 7500 ft
Mostly Cloudy 25000 ft
Heat Index 92 °F
Dew Point 75 °F
Humidity 74%
Rainfall in
Snow Depth Not available.
UV 1 out of 12
Pollen 3.40 out of 12
Air Quality Not available.
Flu Activity Not available.
METAR KNQA 012350Z 19005KT 10SM FEW075 BKN250 31/26 A2991

More Conditions Fewer Conditions

Pressure 29.91 in
Visibility 10.0 miles
Clouds Few 7500 ft
Mostly Cloudy 25000 ft
Heat Index 92 °F
Dew Point 75 °F
Humidity 74%
Rainfall in
Snow Depth Not available.
UV 1 out of 12
Pollen 3.40 out of 12
Air Quality Not available.
Flu Activity Not available.
METAR KNQA 012350Z 19005KT 10SM FEW075 BKN250 31/26 A2991

More Conditions Fewer Conditions

10-Day Weather Forecast

×

Almanac

Astronomy

Jul. 01, 2015 Rise Set
Actual Time
Civil Twilight
Nautical Twilight
Astronomical Twilight
Moon
Length of Visible Light
Length of Day
Tomorrow will be .
, % of the Moon is Illuminated

Today's Extremes

State Highs State Lows

Community

WunderPhotos

Upload Photos

1,834,355 photos uploaded!

WunderBlogs® & News

Nearby

Air Quality

  Air Quality AQ Index Pollutant
Not available.

Snow Depth

Station Depth Elevation

Earthquake Activity

City Distance Mag. Time & Date
Minimum magnitude displayed is 2.5.

Coastal Water Temperatures

Place Temperature

Stations

Nearby Weather Stations

Station Location Temp. Windchill Dew Point Humidity Wind Precip. Elev Updated Type